createdAt,value
2023-03-31T00:00:41.962Z,3.97
2023-03-31T00:03:27.402Z,4.03
2023-03-31T00:06:17.340Z,3.95
2023-03-31T00:09:02.338Z,4.07
2023-03-31T00:11:51.991Z,4.15
2023-03-31T00:14:36.749Z,3.65
2023-03-31T00:17:21.845Z,3.88
2023-03-31T00:20:11.551Z,3.97
2023-03-31T00:22:57.026Z,3.63
2023-03-31T00:25:44.150Z,4.00
2023-03-31T00:28:29.000Z,3.85
2023-03-31T00:31:13.907Z,3.67
2023-03-31T00:33:58.980Z,4.00
2023-03-31T00:36:47.905Z,3.60
2023-03-31T00:39:33.267Z,3.88
2023-03-31T00:42:17.832Z,4.30
2023-03-31T00:45:15.652Z,3.75
2023-03-31T00:48:09.669Z,3.63
2023-03-31T00:50:57.070Z,3.58
2023-03-31T00:53:42.195Z,4.30
2023-03-31T00:56:32.756Z,4.47
2023-03-31T00:59:18.055Z,5.40
2023-03-31T01:02:04.041Z,4.97
2023-03-31T01:05:01.417Z,5.38
2023-03-31T01:07:48.271Z,4.93
2023-03-31T01:10:40.889Z,4.53
2023-03-31T01:13:26.782Z,4.20
2023-03-31T01:16:11.868Z,4.15
2023-03-31T01:18:56.954Z,4.00
2023-03-31T01:21:59.920Z,4.32
2023-03-31T01:25:01.041Z,4.72
2023-03-31T01:27:53.603Z,5.05
2023-03-31T01:31:04.777Z,4.88
2023-03-31T01:34:01.408Z,5.10
2023-03-31T01:37:04.220Z,4.20
2023-03-31T01:40:18.451Z,5.07
2023-03-31T01:43:35.871Z,4.72
2023-03-31T01:46:28.582Z,4.90
2023-03-31T01:49:26.982Z,5.60
2023-03-31T01:52:27.297Z,4.97
2023-03-31T01:55:33.613Z,4.63
2023-03-31T01:58:24.133Z,4.72
2023-03-31T02:01:30.187Z,4.18
2023-03-31T02:04:21.869Z,4.72
2023-03-31T02:07:16.936Z,4.80
2023-03-31T02:10:06.591Z,4.82
2023-03-31T02:12:53.145Z,4.93
2023-03-31T02:16:00.924Z,4.68
2023-03-31T02:18:47.769Z,5.07
2023-03-31T02:21:36.297Z,4.63
2023-03-31T02:24:26.137Z,4.72
2023-03-31T02:27:21.265Z,4.47
2023-03-31T02:30:08.135Z,4.47
2023-03-31T02:32:53.209Z,4.55
2023-03-31T02:35:39.057Z,4.35
2023-03-31T02:38:23.903Z,4.80
2023-03-31T02:41:09.613Z,5.05
2023-03-31T02:43:54.612Z,4.90
2023-03-31T02:46:41.552Z,4.45
2023-03-31T02:49:26.597Z,4.90
2023-03-31T02:52:29.856Z,5.10
2023-03-31T02:55:32.822Z,4.68
2023-03-31T02:58:50.507Z,4.53
2023-03-31T03:01:44.392Z,4.22
2023-03-31T03:04:37.076Z,4.53
2023-03-31T03:07:31.133Z,4.80
2023-03-31T03:10:41.191Z,4.90
2023-03-31T03:13:58.251Z,5.05
2023-03-31T03:16:48.133Z,5.55
2023-03-31T03:19:32.833Z,5.40
2023-03-31T03:25:02.856Z,5.13
2023-03-31T03:27:47.533Z,5.20
2023-03-31T03:30:32.612Z,4.95
2023-03-31T03:33:17.573Z,4.93
2023-03-31T03:36:02.748Z,5.15
2023-03-31T03:38:47.361Z,4.80
2023-03-31T03:41:32.681Z,5.95
2023-03-31T03:44:17.524Z,5.47
2023-03-31T03:47:02.404Z,6.30
2023-03-31T03:49:48.503Z,7.32
2023-03-31T03:52:33.350Z,7.50
2023-03-31T03:55:17.823Z,8.85
2023-03-31T03:58:02.361Z,8.73
2023-03-31T04:00:47.578Z,7.85
2023-03-31T04:03:32.358Z,6.20
2023-03-31T04:06:17.331Z,6.50
2023-03-31T04:09:03.431Z,5.88
2023-03-31T04:11:48.361Z,6.20
2023-03-31T04:14:33.185Z,6.28
2023-03-31T04:17:18.024Z,6.80
2023-03-31T04:20:07.032Z,6.97
2023-03-31T04:22:51.428Z,6.28
2023-03-31T04:25:38.170Z,6.50
2023-03-31T04:28:23.224Z,7.00
2023-03-31T04:31:09.604Z,7.30
2023-03-31T04:33:55.100Z,7.63
2023-03-31T04:36:42.020Z,7.38
2023-03-31T04:39:26.594Z,7.82
2023-03-31T04:42:11.907Z,7.03
2023-03-31T04:44:56.256Z,6.43
2023-03-31T04:47:41.743Z,6.65
2023-03-31T04:50:26.483Z,7.00
2023-03-31T04:53:11.219Z,7.07
2023-03-31T04:55:56.226Z,7.22
2023-03-31T04:58:41.183Z,8.27
2023-03-31T05:01:26.112Z,7.78
2023-03-31T05:04:11.274Z,8.55
2023-03-31T05:06:56.217Z,8.45
2023-03-31T05:09:41.278Z,7.80
2023-03-31T05:12:26.005Z,8.93
2023-03-31T05:15:10.968Z,10.82
2023-03-31T05:18:00.580Z,11.30
2023-03-31T05:20:45.902Z,9.38
2023-03-31T05:23:31.463Z,8.23
2023-03-31T05:26:18.876Z,6.93
2023-03-31T05:29:13.324Z,6.70
2023-03-31T05:32:07.403Z,7.55
2023-03-31T05:34:56.372Z,7.05
2023-03-31T05:37:41.006Z,6.90
2023-03-31T05:40:25.956Z,8.00
2023-03-31T05:43:11.733Z,9.15
2023-03-31T05:46:21.276Z,8.40
2023-03-31T05:52:27.578Z,10.15
2023-03-31T05:55:12.616Z,9.90
2023-03-31T05:57:57.612Z,10.40
2023-03-31T06:03:29.046Z,8.65
2023-03-31T06:06:14.237Z,8.13
2023-03-31T06:12:16.244Z,7.13
2023-03-31T06:15:01.874Z,7.72
2023-03-31T06:17:47.461Z,6.57
2023-03-31T06:20:32.424Z,7.50
2023-03-31T06:23:17.344Z,7.40
2023-03-31T06:26:07.866Z,7.82
2023-03-31T06:28:53.545Z,7.70
2023-03-31T06:31:43.683Z,7.28
2023-03-31T06:34:30.972Z,7.22
2023-03-31T06:37:26.365Z,7.43
2023-03-31T06:40:53.467Z,7.78
2023-03-31T06:44:33.475Z,7.72
2023-03-31T06:47:40.838Z,7.90
2023-03-31T06:50:28.730Z,8.57
2023-03-31T06:53:16.933Z,7.35
2023-03-31T06:56:02.690Z,6.93
2023-03-31T06:59:42.742Z,7.10
2023-03-31T07:02:42.872Z,7.35
2023-03-31T07:05:41.594Z,7.60
2023-03-31T07:08:44.797Z,8.13
2023-03-31T07:11:47.416Z,8.18
2023-03-31T07:14:34.478Z,7.93
2023-03-31T07:17:26.897Z,8.57
2023-03-31T07:20:20.162Z,7.90
2023-03-31T07:23:21.438Z,8.43
2023-03-31T07:26:06.812Z,7.90
2023-03-31T07:29:00.467Z,8.25
2023-03-31T07:31:57.060Z,9.00
2023-03-31T07:34:42.301Z,8.52
2023-03-31T07:37:27.767Z,8.38
2023-03-31T07:40:27.455Z,8.77
2023-03-31T07:43:22.719Z,9.13
2023-03-31T07:46:17.524Z,9.25
2023-03-31T07:49:11.314Z,9.75
2023-03-31T07:51:56.388Z,9.13
2023-03-31T07:54:43.395Z,10.30
2023-03-31T07:57:32.042Z,10.40
2023-03-31T08:00:17.877Z,9.93
2023-03-31T08:03:06.519Z,10.48
2023-03-31T08:06:00.287Z,10.10
2023-03-31T08:08:55.364Z,10.18
2023-03-31T08:11:48.199Z,11.02
2023-03-31T08:14:40.373Z,11.70
2023-03-31T08:17:26.664Z,11.77
2023-03-31T08:20:11.973Z,11.93
2023-03-31T08:22:56.956Z,10.98
2023-03-31T08:25:41.995Z,11.77
2023-03-31T08:28:26.845Z,11.48
2023-03-31T08:31:45.829Z,11.73
2023-03-31T08:35:05.590Z,10.90
2023-03-31T08:37:54.785Z,11.07
2023-03-31T08:40:41.201Z,11.27
2023-03-31T08:43:32.188Z,12.00
2023-03-31T08:46:47.945Z,13.25
2023-03-31T08:49:41.570Z,12.07
2023-03-31T08:52:32.508Z,11.82
2023-03-31T08:55:27.395Z,14.10
2023-03-31T08:58:41.844Z,12.75
2023-03-31T09:01:27.672Z,12.80
2023-03-31T09:04:41.924Z,12.77
2023-03-31T09:07:55.221Z,12.00
2023-03-31T09:11:00.908Z,10.98
2023-03-31T09:14:00.693Z,12.15
2023-03-31T09:20:32.774Z,11.52
2023-03-31T09:23:33.389Z,11.80
2023-03-31T09:26:33.389Z,11.75
2023-03-31T09:29:40.818Z,12.63
2023-03-31T09:32:29.303Z,11.43
2023-03-31T09:35:16.522Z,11.13
2023-03-31T09:38:04.726Z,12.10
2023-03-31T09:41:22.940Z,11.15
2023-03-31T09:44:17.989Z,11.35
2023-03-31T09:47:18.480Z,11.02
2023-03-31T09:50:03.380Z,11.82
2023-03-31T09:52:58.271Z,12.02
2023-03-31T09:55:48.919Z,12.00
2023-03-31T09:58:48.320Z,11.27
2023-03-31T10:01:35.968Z,11.45
2023-03-31T10:04:24.489Z,11.05
2023-03-31T10:07:11.325Z,10.48
2023-03-31T10:09:56.953Z,11.35
2023-03-31T10:12:54.600Z,10.90
2023-03-31T10:15:42.483Z,10.93
2023-03-31T10:18:36.623Z,11.40
2023-03-31T10:21:25.436Z,10.80
2023-03-31T10:24:10.515Z,9.98
2023-03-31T10:26:56.922Z,11.25
2023-03-31T10:29:41.554Z,12.10
2023-03-31T10:32:32.292Z,11.98
2023-03-31T10:35:29.565Z,12.43
2023-03-31T10:41:01.677Z,11.77
2023-03-31T10:43:54.833Z,12.57
2023-03-31T10:46:47.600Z,12.55
2023-03-31T10:49:38.643Z,13.48
2023-03-31T10:52:26.632Z,13.32
2023-03-31T10:55:25.807Z,14.75
2023-03-31T10:58:36.718Z,14.15
2023-03-31T11:01:32.389Z,14.88
2023-03-31T11:04:42.749Z,14.52
2023-03-31T11:07:48.983Z,16.58
2023-03-31T11:10:48.956Z,15.80
2023-03-31T11:13:39.868Z,16.00
2023-03-31T11:16:34.088Z,16.27
2023-03-31T11:19:40.856Z,15.65
2023-03-31T11:22:31.419Z,16.85
2023-03-31T11:25:28.597Z,17.48
2023-03-31T11:28:49.908Z,17.98
2023-03-31T11:31:52.833Z,18.85
2023-03-31T11:34:52.520Z,18.40
2023-03-31T11:37:50.028Z,19.90
2023-03-31T11:40:53.210Z,20.83
2023-03-31T11:43:54.969Z,22.48
2023-03-31T11:46:53.424Z,22.35
2023-03-31T11:50:00.616Z,22.98
2023-03-31T11:52:55.584Z,22.08
2023-03-31T11:55:40.561Z,20.75
2023-03-31T11:58:37.118Z,21.83
2023-03-31T12:01:27.390Z,21.15
2023-03-31T12:04:19.887Z,22.75
2023-03-31T12:07:22.071Z,21.25
2023-03-31T12:10:41.195Z,20.33
2023-03-31T12:13:50.598Z,20.25
2023-03-31T12:16:40.807Z,21.02
2023-03-31T12:19:27.280Z,22.35
2023-03-31T12:22:26.894Z,21.58
2023-03-31T12:25:22.370Z,24.15
2023-03-31T12:28:09.036Z,24.92
2023-03-31T12:30:56.608Z,26.40
2023-03-31T12:33:45.624Z,24.42
2023-03-31T12:36:52.444Z,24.23
2023-03-31T12:39:54.162Z,23.63
2023-03-31T12:42:47.448Z,23.92
2023-03-31T12:46:18.108Z,24.25
2023-03-31T12:49:23.562Z,26.75
2023-03-31T12:52:14.264Z,25.13
2023-03-31T12:55:40.398Z,26.77
2023-03-31T12:58:34.369Z,25.95
2023-03-31T13:01:21.833Z,28.08
2023-03-31T13:04:10.668Z,28.25
2023-03-31T13:06:59.075Z,27.60
2023-03-31T13:09:46.449Z,28.02
2023-03-31T13:12:34.854Z,28.42
2023-03-31T13:15:19.915Z,28.08
2023-03-31T13:18:19.413Z,26.60
2023-03-31T13:21:07.165Z,26.63
2023-03-31T13:23:53.025Z,26.73
2023-03-31T13:26:45.285Z,25.65
2023-03-31T13:29:42.463Z,24.92
2023-03-31T13:32:28.305Z,24.55
2023-03-31T13:39:30.835Z,26.05
2023-03-31T13:43:23.729Z,24.83
2023-03-31T13:46:14.348Z,25.63
2023-03-31T13:49:24.311Z,26.80
2023-03-31T13:52:11.810Z,27.80
2023-03-31T13:55:17.771Z,23.65
2023-03-31T13:58:33.624Z,23.88
2023-03-31T14:01:51.025Z,22.33
2023-03-31T14:04:49.754Z,23.02
2023-03-31T14:07:49.223Z,24.30
2023-03-31T14:10:36.435Z,22.75
2023-03-31T14:13:25.203Z,22.85
2023-03-31T14:16:10.838Z,22.75
2023-03-31T14:19:07.406Z,23.20
2023-03-31T14:21:58.257Z,24.38
2023-03-31T14:25:30.808Z,23.55
2023-03-31T14:28:21.601Z,20.80
2023-03-31T14:31:19.825Z,23.23
2023-03-31T14:34:09.055Z,21.73
2023-03-31T14:36:57.084Z,21.52
2023-03-31T14:39:52.227Z,22.33
2023-03-31T14:42:42.338Z,21.48
2023-03-31T14:45:31.155Z,21.70
2023-03-31T14:48:15.884Z,19.15
2023-03-31T14:51:02.775Z,17.80
2023-03-31T14:53:47.324Z,16.35
2023-03-31T14:56:37.419Z,17.23
2023-03-31T14:59:28.448Z,16.88
2023-03-31T15:02:18.974Z,17.05
2023-03-31T15:05:24.929Z,17.17
2023-03-31T15:08:23.490Z,18.30
2023-03-31T15:11:19.371Z,17.92
2023-03-31T15:14:05.913Z,18.05
2023-03-31T15:16:51.058Z,19.33
2023-03-31T15:19:36.007Z,19.55
2023-03-31T15:22:23.221Z,21.35
2023-03-31T15:25:13.618Z,21.30
2023-03-31T15:28:10.972Z,21.88
2023-03-31T15:31:08.982Z,21.02
2023-03-31T15:33:54.223Z,20.65
2023-03-31T15:36:39.378Z,19.80
2023-03-31T15:39:31.691Z,20.42
2023-03-31T15:42:17.825Z,20.55
2023-03-31T15:45:38.427Z,21.98
2023-03-31T15:48:27.757Z,24.65
2023-03-31T15:51:35.348Z,23.70
2023-03-31T15:54:33.663Z,23.80
2023-03-31T15:57:19.141Z,22.80
2023-03-31T16:00:07.265Z,21.02
2023-03-31T16:03:01.707Z,19.48
2023-03-31T16:05:54.945Z,17.45
2023-03-31T16:09:12.184Z,18.15
2023-03-31T16:12:01.739Z,19.55
2023-03-31T16:14:59.358Z,19.02
2023-03-31T16:17:55.519Z,19.98
2023-03-31T16:20:45.484Z,19.42
2023-03-31T16:23:33.472Z,17.70
2023-03-31T16:26:23.294Z,17.25
2023-03-31T16:29:08.017Z,17.42
2023-03-31T16:32:07.822Z,18.10
2023-03-31T16:34:56.257Z,17.30
2023-03-31T16:37:41.114Z,21.15
2023-03-31T16:43:18.674Z,17.30
2023-03-31T16:46:03.938Z,15.98
2023-03-31T16:48:48.987Z,16.52
2023-03-31T16:51:33.707Z,16.55
2023-03-31T16:54:18.250Z,16.27
2023-03-31T16:57:03.455Z,15.93
2023-03-31T16:59:48.844Z,16.25
2023-03-31T17:02:33.556Z,17.77
2023-03-31T17:05:20.188Z,18.00
2023-03-31T17:08:06.075Z,18.13
2023-03-31T17:11:11.039Z,19.85
2023-03-31T17:13:56.223Z,20.60
2023-03-31T17:19:47.048Z,17.92
2023-03-31T17:22:32.665Z,18.63
2023-03-31T17:25:18.403Z,16.60
2023-03-31T17:28:04.061Z,17.30
2023-03-31T17:30:49.620Z,17.17
2023-03-31T17:33:34.466Z,17.25
2023-03-31T17:36:19.127Z,17.63
2023-03-31T17:39:04.815Z,16.77
2023-03-31T17:41:49.613Z,16.60
2023-03-31T17:44:34.996Z,15.77
2023-03-31T17:47:20.481Z,21.88
2023-03-31T17:50:05.601Z,27.83
2023-03-31T17:52:51.049Z,29.55
2023-03-31T17:55:37.810Z,28.15
2023-03-31T17:58:22.769Z,27.52
2023-03-31T18:01:13.113Z,28.50
2023-03-31T18:03:58.946Z,30.92
2023-03-31T18:06:44.171Z,31.50
2023-03-31T18:09:29.092Z,34.17
2023-03-31T18:12:13.662Z,36.05
2023-03-31T18:14:58.676Z,37.20
2023-03-31T18:17:44.096Z,36.63
2023-03-31T18:20:29.239Z,36.20
2023-03-31T18:23:14.250Z,37.90
2023-03-31T18:25:59.403Z,38.35
2023-03-31T18:28:43.910Z,38.70
2023-03-31T18:31:29.245Z,41.05
2023-03-31T18:34:15.721Z,41.15
2023-03-31T18:37:00.257Z,42.20
2023-03-31T18:39:45.244Z,42.55
2023-03-31T18:42:30.276Z,42.35
2023-03-31T18:45:15.257Z,42.30
2023-03-31T18:48:00.439Z,48.45
2023-03-31T18:50:45.498Z,50.80
2023-03-31T18:53:30.378Z,53.80
2023-03-31T18:56:15.369Z,50.55
2023-03-31T18:59:03.333Z,49.42
2023-03-31T19:01:48.414Z,46.47
2023-03-31T19:04:33.121Z,42.78
2023-03-31T19:07:18.223Z,54.85
2023-03-31T19:10:03.459Z,61.05
2023-03-31T19:12:48.138Z,54.63
2023-03-31T19:15:36.384Z,48.58
2023-03-31T19:18:21.942Z,40.53
2023-03-31T19:21:07.214Z,29.17
2023-03-31T19:23:52.117Z,22.83
2023-03-31T19:29:21.658Z,19.60
2023-03-31T19:32:06.640Z,20.35
2023-03-31T19:34:52.199Z,22.67
2023-03-31T19:37:39.615Z,20.60
2023-03-31T19:40:24.853Z,20.60
2023-03-31T19:43:22.320Z,21.58
2023-03-31T19:46:07.431Z,22.45
2023-03-31T19:48:52.237Z,23.83
2023-03-31T19:51:37.237Z,21.92
2023-03-31T19:54:31.175Z,23.38
2023-03-31T19:57:18.666Z,23.17
2023-03-31T20:00:09.392Z,29.20
2023-03-31T20:02:57.562Z,32.55
2023-03-31T20:05:42.306Z,35.83
2023-03-31T20:08:30.180Z,35.78
2023-03-31T20:11:15.795Z,34.40
2023-03-31T20:14:01.870Z,33.03
2023-03-31T20:16:47.621Z,34.72
2023-03-31T20:19:34.777Z,36.03
2023-03-31T20:22:20.033Z,41.13
2023-03-31T20:25:06.009Z,41.80
2023-03-31T20:27:50.972Z,41.85
2023-03-31T20:30:37.639Z,46.65
2023-03-31T20:33:23.658Z,42.00
2023-03-31T20:36:11.520Z,36.58
2023-03-31T20:38:57.902Z,34.70
2023-03-31T20:41:43.427Z,34.22
2023-03-31T20:44:28.426Z,31.52
2023-03-31T20:47:13.942Z,26.63
2023-03-31T20:49:58.401Z,30.13
2023-03-31T20:55:30.149Z,28.60
2023-03-31T20:58:14.977Z,27.52
2023-03-31T21:00:59.993Z,26.60
2023-03-31T21:03:45.719Z,28.98
2023-03-31T21:06:36.874Z,29.23
2023-03-31T21:09:23.270Z,28.33
2023-03-31T21:12:08.050Z,28.08
2023-03-31T21:14:52.995Z,29.48
2023-03-31T21:17:37.931Z,25.95
2023-03-31T21:20:22.674Z,23.75
2023-03-31T21:25:54.110Z,21.38
2023-03-31T21:28:38.841Z,23.00
2023-03-31T21:31:25.141Z,22.17
2023-03-31T21:34:10.367Z,21.40
2023-03-31T21:36:54.981Z,21.38
2023-03-31T21:39:40.127Z,23.73
2023-03-31T21:42:25.140Z,21.58
2023-03-31T21:45:10.824Z,21.40
2023-03-31T21:47:55.746Z,20.45
2023-03-31T21:50:41.041Z,20.88
2023-03-31T21:53:28.024Z,20.90
2023-03-31T21:56:13.023Z,21.60
2023-03-31T21:58:57.655Z,19.52
2023-03-31T22:01:42.736Z,19.83
2023-03-31T22:04:29.044Z,18.98
2023-03-31T22:07:14.838Z,17.98
2023-03-31T22:09:59.625Z,16.83
2023-03-31T22:12:44.454Z,17.05
2023-03-31T22:15:28.813Z,17.88
2023-03-31T22:18:14.155Z,17.83
2023-03-31T22:21:00.367Z,15.70
2023-03-31T22:23:44.983Z,15.13
2023-03-31T22:26:30.739Z,15.75
2023-03-31T22:29:16.253Z,15.48
2023-03-31T22:32:01.191Z,18.13
2023-03-31T22:34:46.780Z,17.00
2023-03-31T22:37:31.744Z,16.90
2023-03-31T22:40:17.134Z,16.15
2023-03-31T22:43:02.087Z,16.58
2023-03-31T22:45:47.560Z,17.42
2023-03-31T22:48:33.422Z,16.25
2023-03-31T22:51:18.665Z,15.88
2023-03-31T22:54:03.542Z,15.38
2023-03-31T22:56:48.357Z,15.30
2023-03-31T22:59:33.654Z,16.52
2023-03-31T23:02:18.361Z,15.40
2023-03-31T23:05:03.401Z,15.50
2023-03-31T23:07:48.103Z,15.73
2023-03-31T23:10:32.665Z,14.20
2023-03-31T23:13:17.397Z,15.23
2023-03-31T23:16:11.478Z,14.20
2023-03-31T23:18:56.106Z,15.05
2023-03-31T23:21:41.046Z,15.80
2023-03-31T23:24:28.705Z,14.85
2023-03-31T23:27:13.487Z,15.80
2023-03-31T23:29:58.200Z,15.50
2023-03-31T23:32:42.975Z,15.77
2023-03-31T23:38:12.112Z,16.23
2023-03-31T23:40:57.644Z,14.85
2023-03-31T23:43:43.373Z,14.45
2023-03-31T23:46:29.037Z,14.65
2023-03-31T23:49:13.604Z,14.98
2023-03-31T23:51:58.199Z,15.13
2023-03-31T23:54:43.020Z,15.07
2023-03-31T23:57:27.995Z,13.98
